グアルーリョス国際空港 (サンパウロ)の過去48時間の天気

グアルーリョス国際空港 (サンパウロ) (Guarulhos Civ / Mil )

現在時刻: 10/1 12:09 -03 (10/1 15:09 UTC) 以下の時間は現地時間です。

過去48時間のMETAR気象情報
時間 風向 風速(m/s) 視程 気温(℃) 湿度(%) 気圧(hPa) 天気現象
1 11:00 東北東 3 10km以上 30 52 1016
1 10:00 3 10km以上 27 58 1017
1 09:00 東北東 4 10km以上 24 69 1017
1 08:00 東北東 5 8000m 21 83 1017
1 07:00 3 5000m 19 94 1017 もや
1 06:00 東北東 3 7000m 19 94 1017
1 05:00 東南東 2 9000m 20 88 1017
1 04:00 2 8000m 20 88 1017
1 03:00 南南東 1 9000m 19 88 1017
1 02:00 1 10km以上 20 88 1018
1 01:00 1 10km以上 20 88 1018
1 00:00 南南西 2 8000m 19 94 1019
30 23:00 北東 3 8000m 21 83 1019
30 22:00 南南東 2 8000m 21 83 1019
30 21:00 南南東 2 10km以上 22 78 1019
30 20:00 4 10km以上 27 48 1017
30 19:00 北東 4 10km以上 29 33 1016
30 18:00 南東 4 10km以上 29 35 1015
30 17:00 3 10km以上 33 34 1014
30 16:00 5 10km以上 33 32 1014
30 15:00 北北東 3 10km以上 37 24 1014
30 14:00 北北西 2 10km以上 36 24 1015
30 13:00 4 10km以上 35 32 1016
30 12:00 東北東 4 10km以上 33 41 1017
30 11:00 4 10km以上 29 55 1018
30 10:00 東北東 4 10km以上 26 65 1019
30 09:00 東北東 5 8000m 22 83 1020
30 08:37 東北東 5 5000m 22 78 1020 もや
30 08:00 東北東 5 5000m 20 88 1020 もや
30 07:00 東北東 6 3500m 19 94 1019 もや
30 06:00 東北東 6 2500m 19 94 1019 もや
30 05:00 東北東 6 5000m 19 94 1018 もや
30 04:00 東北東 6 6000m 19 94 1018
30 03:00 東北東 5 7000m 19 94 1018
30 02:00 東北東 6 8000m 19 94 1018
30 01:40 5 9000m 19 94 1018
30 01:00 東北東 5 10km以上 20 88 1019
30 00:00 東北東 4 10km以上 20 88 1019
29 23:00 4 10km以上 20 88 1020
29 22:00 3 10km以上 21 83 1020
29 21:00 南東 3 10km以上 20 88 1020
29 20:00 東南東 3 10km以上 21 83 1019
29 19:00 東南東 3 10km以上 21 83 1019
29 18:00 3 10km以上 22 78 1019
29 17:43 3 10km以上 22 78 1019
29 17:00 4 10km以上 23 73 1018
29 16:00 4 10km以上 25 69 1018
29 15:00 南南東 4 10km以上 26 61 1018
29 14:00 東南東 3 10km以上 26 61 1018
29 13:00 南南東 4 10km以上 25 65 1019
SBGR 011400Z 07006KT CAVOK 30/19 Q1016
SBGR 011300Z 08006KT CAVOK 27/18 Q1017
SBGR 011200Z 07008KT CAVOK 24/18 Q1017
SBGR 011100Z 07010KT 8000 NSC 21/18 Q1017
SBGR 011000Z 08006KT 5000 BR SCT007 19/18 Q1017
SBGR 010900Z 06006KT 7000 3000E BKN007 19/18 Q1017
SBGR 010800Z 12004KT 9000 SCT009 20/18 Q1017
SBGR 010700Z 10004KT 8000 BKN009 20/18 Q1017
SBGR 010600Z 16002KT 9000 NSC 19/17 Q1017
SBGR 010500Z 18002KT CAVOK 20/18 Q1018
SBGR 010400Z 19002KT CAVOK 20/18 Q1018
SBGR 010300Z 20003KT 8000 NSC 19/18 Q1019
SBGR 010200Z 05005KT 8000 NSC 21/18 Q1019
SBGR 010100Z 15003KT 8000 NSC 21/18 Q1019
SBGR 010000Z 16004KT CAVOK 22/18 Q1019
SBGR 302300Z 10007KT CAVOK 27/15 Q1017
SBGR 302200Z 05008KT CAVOK 29/11 Q1016
SBGR 302100Z 14007KT 9999 FEW045TCU SCT050 29/12 Q1015
SBGR 302000Z 08006KT 9999 FEW045TCU SCT050 33/15 Q1014
SBGR 301900Z 09010KT 9999 FEW040TCU SCT045 33/14 Q1014
SBGR 301800Z 02006KT CAVOK 37/13 Q1014
SBGR 301700Z 33004KT CAVOK 36/12 Q1015
SBGR 301600Z 08008KT CAVOK 35/16 Q1016
SBGR 301500Z 07008KT CAVOK 33/18 Q1017
SBGR 301400Z 09008KT CAVOK 29/19 Q1018
SBGR 301300Z 07008KT CAVOK 26/19 Q1019
SBGR 301200Z 07009KT 8000 FEW008 22/19 Q1020
SBGR 301137Z 06010KT 5000 BR SCT006 22/18 Q1020
SBGR 301100Z 06010KT 5000 BR BKN006 20/18 Q1020
SBGR 301000Z 06011KT 3500 BR OVC005 19/18 Q1019
SBGR 300900Z 07011KT 2500 BR OVC003 19/18 Q1019
SBGR 300800Z 06011KT 5000 BR OVC004 19/18 Q1018
SBGR 300700Z 07011KT 6000 OVC004 19/18 Q1018
SBGR 300600Z 07010KT 7000 OVC005 19/18 Q1018
SBGR 300500Z 06011KT 8000 OVC004 19/18 Q1018
SBGR 300440Z 08009KT 9000 OVC005 19/18 Q1018
SBGR 300400Z 06009KT 9999 OVC007 20/18 Q1019
SBGR 300300Z 07007KT 9999 OVC007 20/18 Q1019
SBGR 300200Z 08008KT 9999 OVC009 20/18 Q1020
SBGR 300100Z 10005KT 9999 OVC009 21/18 Q1020
SBGR 300000Z 14005KT 9999 OVC009 20/18 Q1020
SBGR 292300Z 11005KT 9999 OVC009 21/18 Q1019
SBGR 292200Z 12006KT 9999 OVC011 21/18 Q1019
SBGR 292100Z 18005KT 9999 OVC013 22/18 Q1019
SBGR 292043Z 18006KT 9999 OVC013 22/18 Q1019
SBGR 292000Z 17007KT 9999 SCT017 23/18 Q1018
SBGR 291900Z 17008KT 9999 FEW026 25/19 Q1018
SBGR 291800Z 15007KT CAVOK 26/18 Q1018
SBGR 291700Z 11006KT 9999 FEW026 26/18 Q1018
SBGR 291600Z 15007KT 9999 BKN026 25/18 Q1019